Time;durP1;ratioP1;P1;durP2;ratioP2;P2;SDS_P1;SDS_P2;PMS_P1;PMS_P2;Temp;Humidity;BMP_temperature;BMP_pressure;BME280_temperature;BME280_humidity;BME280_pressure;Samples;Min_cycle;Max_cycle;Signal;HPM_P1;HPM_P2
2023/08/25 00:00:29;;;;;;;52.42;36.72;;;;;;;20.64;100.00;100961.34;5028980;28;20514;-61
2023/08/25 00:02:54;;;;;;;56.92;37.97;;;;;;;20.63;100.00;100959.66;5031509;28;20069;-62
2023/08/25 00:05:19;;;;;;;55.20;37.63;;;;;;;20.65;100.00;100956.84;5031034;28;20439;-60
2023/08/25 00:07:45;;;;;;;59.13;39.15;;;;;;;20.66;100.00;100962.09;5029452;28;20025;-61
2023/08/25 00:10:10;;;;;;;58.22;38.92;;;;;;;20.66;100.00;100963.91;5031121;28;20048;-61
2023/08/25 00:12:36;;;;;;;57.50;37.67;;;;;;;20.61;100.00;100958.03;5030400;28;20476;-61
2023/08/25 00:15:01;;;;;;;60.85;39.42;;;;;;;20.60;100.00;100961.69;5030093;28;20692;-63
2023/08/25 00:17:26;;;;;;;53.83;36.75;;;;;;;20.52;100.00;100962.25;5027434;28;20032;-63
2023/08/25 00:19:52;;;;;;;57.63;37.50;;;;;;;20.49;100.00;100962.47;5029776;28;20026;-60
2023/08/25 00:22:17;;;;;;;61.15;40.58;;;;;;;20.44;100.00;100955.66;5030091;28;20022;-61
2023/08/25 00:24:43;;;;;;;59.47;40.00;;;;;;;20.43;100.00;100948.59;5030954;28;20029;-61
2023/08/25 00:27:08;;;;;;;60.78;40.92;;;;;;;20.39;100.00;100951.63;5030532;28;20143;-61
2023/08/25 00:29:33;;;;;;;63.20;40.65;;;;;;;20.32;100.00;100944.03;5029068;28;20100;-61
2023/08/25 00:31:59;;;;;;;58.50;39.28;;;;;;;20.30;100.00;100942.44;5030669;28;20051;-61
2023/08/25 00:34:24;;;;;;;67.95;40.38;;;;;;;20.25;100.00;100945.47;5029676;28;20033;-61
2023/08/25 00:36:50;;;;;;;59.97;38.42;;;;;;;20.23;100.00;100952.75;5029491;28;20021;-61
2023/08/25 00:39:16;;;;;;;66.65;44.13;;;;;;;20.23;100.00;100946.53;5031140;28;20037;-61
2023/08/25 00:41:41;;;;;;;71.28;44.45;;;;;;;20.19;100.00;100941.41;5029545;28;20021;-59
2023/08/25 00:44:06;;;;;;;72.05;45.17;;;;;;;20.18;100.00;100946.88;5029323;28;20052;-61
2023/08/25 00:46:32;;;;;;;73.68;44.35;;;;;;;20.15;100.00;100950.66;5031148;28;20044;-63
2023/08/25 00:48:57;;;;;;;79.20;46.75;;;;;;;20.10;100.00;100955.47;5029819;28;20104;-63
2023/08/25 00:51:24;;;;;;;72.75;43.15;;;;;;;20.07;100.00;100961.03;5026559;28;20361;-59
2023/08/25 00:53:49;;;;;;;78.53;47.35;;;;;;;20.03;100.00;100959.56;5029891;28;20056;-63
2023/08/25 00:56:16;;;;;;;66.50;42.08;;;;;;;19.98;100.00;100957.19;5029508;28;20064;-62
2023/08/25 00:58:41;;;;;;;75.88;44.50;;;;;;;19.98;100.00;100959.00;5011526;28;20027;-62
2023/08/25 01:01:06;;;;;;;72.32;43.30;;;;;;;19.97;100.00;100962.63;5029943;28;20018;-58
2023/08/25 01:03:32;;;;;;;74.63;45.50;;;;;;;19.97;100.00;100959.97;5027500;28;20037;-62
2023/08/25 01:05:58;;;;;;;75.93;45.70;;;;;;;19.93;100.00;100965.53;5027743;28;20029;-61
2023/08/25 01:08:24;;;;;;;72.20;44.30;;;;;;;19.87;100.00;100965.97;5027826;28;20036;-55
2023/08/25 01:10:58;;;;;;;80.10;46.17;;;;;;;19.81;100.00;100961.91;5029898;28;20456;-62
2023/08/25 01:13:34;;;;;;;71.18;44.00;;;;;;;19.77;100.00;100959.56;5029150;28;20053;-62
2023/08/25 01:16:00;;;;;;;77.65;46.35;;;;;;;19.74;100.00;100962.47;5027309;28;20079;-62
2023/08/25 01:18:28;;;;;;;80.75;45.83;;;;;;;19.72;100.00;100964.41;5029492;28;20033;-62
2023/08/25 01:20:55;;;;;;;76.45;44.70;;;;;;;19.69;100.00;100960.97;5026159;28;20021;-62
2023/08/25 01:23:48;;;;;;;76.43;43.85;;;;;;;19.70;100.00;100962.69;5029234;28;20681;-62
2023/08/25 01:26:14;;;;;;;75.68;43.40;;;;;;;19.69;100.00;100955.63;5027178;28;20521;-61
2023/08/25 01:28:40;;;;;;;84.47;46.47;;;;;;;19.72;100.00;100956.38;5028489;28;20033;-62
2023/08/25 01:31:06;;;;;;;82.65;46.95;;;;;;;19.72;100.00;100953.69;5029099;28;20365;-63
2023/08/25 01:33:32;;;;;;;75.15;43.25;;;;;;;19.72;100.00;100949.22;5028176;28;20078;-62
2023/08/25 01:36:21;;;;;;;84.95;46.42;;;;;;;19.74;100.00;100951.78;5027730;28;20088;-61
2023/08/25 01:39:06;;;;;;;81.53;45.00;;;;;;;19.68;100.00;100959.28;5027217;28;20030;-62
2023/08/25 01:41:38;;;;;;;90.40;46.97;;;;;;;19.68;100.00;100959.28;5027907;28;20034;-59
2023/08/25 01:44:05;;;;;;;90.45;48.08;;;;;;;19.68;100.00;100953.91;5027663;28;20041;-62
2023/08/25 01:46:30;;;;;;;89.78;47.38;;;;;;;19.67;100.00;100960.25;5026743;28;20468;-62
2023/08/25 01:48:57;;;;;;;91.95;47.65;;;;;;;19.66;100.00;100945.16;5027817;28;20037;-61
2023/08/25 01:51:22;;;;;;;90.00;47.53;;;;;;;19.68;100.00;100945.91;5027162;28;20072;-62
2023/08/25 01:53:53;;;;;;;92.72;46.72;;;;;;;19.68;100.00;100945.91;5029597;28;20392;-62
2023/08/25 01:56:19;;;;;;;93.68;47.08;;;;;;;19.71;100.00;100947.50;5029210;28;20065;-62
2023/08/25 01:58:44;;;;;;;104.93;51.50;;;;;;;19.73;100.00;100950.06;5042655;28;20615;-60
2023/08/25 02:01:10;;;;;;;101.95;50.25;;;;;;;19.75;100.00;100940.13;5029085;28;20025;-61
2023/08/25 02:03:35;;;;;;;104.50;49.60;;;;;;;19.78;100.00;100938.06;5028361;28;20130;-61
2023/08/25 02:06:00;;;;;;;100.93;48.40;;;;;;;19.84;100.00;100934.13;5026963;28;20117;-61
2023/08/25 02:08:26;;;;;;;97.53;48.83;;;;;;;19.91;100.00;100938.06;5025273;28;20117;-61
2023/08/25 02:10:52;;;;;;;104.30;51.42;;;;;;;19.94;100.00;100932.50;5027554;28;20033;-61
2023/08/25 02:13:18;;;;;;;96.97;47.55;;;;;;;20.01;100.00;100932.06;5028658;28;20059;-61
2023/08/25 02:15:51;;;;;;;88.85;45.10;;;;;;;20.06;100.00;100935.25;5011479;28;20364;-61
2023/08/25 02:18:16;;;;;;;103.70;50.92;;;;;;;20.02;100.00;100931.94;5028532;28;20014;-61
2023/08/25 02:20:42;;;;;;;105.63;47.83;;;;;;;19.98;100.00;100926.94;5028032;28;20036;-60
2023/08/25 02:23:08;;;;;;;91.68;46.83;;;;;;;19.90;100.00;100927.47;5026928;28;20072;-62
2023/08/25 02:25:33;;;;;;;97.88;48.80;;;;;;;19.85;100.00;100922.47;5028448;28;20357;-61
2023/08/25 02:27:59;;;;;;;107.35;49.67;;;;;;;19.81;100.00;100920.97;5026885;28;20030;-62
2023/08/25 02:30:24;;;;;;;97.68;47.50;;;;;;;19.76;100.00;100915.09;5027252;28;20468;-62
2023/08/25 02:32:50;;;;;;;110.30;51.00;;;;;;;19.72;100.00;100910.94;5029278;28;20034;-62
2023/08/25 02:35:15;;;;;;;108.25;49.47;;;;;;;19.69;100.00;100907.50;5027311;28;20021;-62
2023/08/25 02:37:56;;;;;;;100.45;46.95;;;;;;;19.67;100.00;100903.25;5027284;28;20024;-62
2023/08/25 02:40:21;;;;;;;97.05;47.53;;;;;;;19.65;100.00;100899.81;5029087;28;20100;-62
2023/08/25 02:42:46;;;;;;;113.85;52.28;;;;;;;19.65;100.00;100895.34;5027352;28;20179;-62
2023/08/25 02:45:12;;;;;;;107.75;51.67;;;;;;;19.68;100.00;100884.44;5027144;28;20059;-62
2023/08/25 02:47:37;;;;;;;95.07;47.28;;;;;;;19.73;100.00;100889.44;5028276;28;20026;-61
2023/08/25 02:50:03;;;;;;;115.68;52.85;;;;;;;19.78;100.00;100883.78;5027140;28;20032;-62
2023/08/25 02:52:28;;;;;;;107.57;51.72;;;;;;;19.82;100.00;100885.25;5026640;28;20439;-61
2023/08/25 02:54:53;;;;;;;113.10;52.42;;;;;;;19.90;100.00;100887.38;5028475;28;20021;-61
2023/08/25 02:57:19;;;;;;;112.88;53.88;;;;;;;19.94;100.00;100876.34;5026835;28;20029;-62
2023/08/25 02:59:44;;;;;;;107.60;53.42;;;;;;;19.98;100.00;100879.63;5026973;28;20075;-62
2023/08/25 03:02:10;;;;;;;124.88;56.83;;;;;;;19.98;100.00;100876.94;5028292;28;20064;-62
2023/08/25 03:04:35;;;;;;;128.80;59.05;;;;;;;20.03;100.00;100868.63;5026707;28;20105;-62
2023/08/25 03:07:00;;;;;;;124.18;57.17;;;;;;;20.05;100.00;100864.03;5026630;28;20503;-62
2023/08/25 03:09:26;;;;;;;122.95;59.38;;;;;;;20.08;100.00;100874.50;5027705;28;20026;-61
2023/08/25 03:11:51;;;;;;;133.43;62.42;;;;;;;20.10;100.00;100869.88;5028077;28;20432;-61
2023/08/25 03:14:18;;;;;;;141.90;64.82;;;;;;;20.12;100.00;100864.41;5026385;28;20037;-63
2023/08/25 03:16:44;;;;;;;127.28;60.00;;;;;;;20.16;100.00;100866.75;5028026;28;20029;-62
2023/08/25 03:19:09;;;;;;;143.23;63.75;;;;;;;20.16;100.00;100853.38;5026595;28;20071;-61
2023/08/25 03:21:34;;;;;;;156.55;68.43;;;;;;;20.18;100.00;100858.59;5026768;28;20030;-60
2023/08/25 03:24:00;;;;;;;153.85;67.00;;;;;;;20.22;100.00;100852.06;5027837;28;20025;-61
2023/08/25 03:26:25;;;;;;;151.40;67.18;;;;;;;20.26;100.00;100850.00;5026033;28;20152;-61
2023/08/25 03:28:50;;;;;;;148.30;67.90;;;;;;;20.30;100.00;100851.47;5027832;28;20079;-61
2023/08/25 03:31:16;;;;;;;155.13;69.03;;;;;;;20.30;100.00;100848.81;5027032;28;20061;-60
2023/08/25 03:33:41;;;;;;;154.23;66.70;;;;;;;20.30;100.00;100841.66;5025958;28;20480;-63
2023/08/25 03:36:06;;;;;;;142.65;63.35;;;;;;;20.31;100.00;100848.69;5028136;28;20084;-62
2023/08/25 03:38:32;;;;;;;149.13;65.60;;;;;;;20.36;100.00;100843.00;5027274;28;20018;-61
2023/08/25 03:40:58;;;;;;;150.68;67.40;;;;;;;20.43;100.00;100841.56;5028104;28;20484;-60
2023/08/25 03:43:24;;;;;;;139.10;62.65;;;;;;;20.56;100.00;100833.44;5026346;28;20395;-61
2023/08/25 03:45:49;;;;;;;143.85;65.05;;;;;;;20.43;100.00;100836.22;5027343;28;20078;-61
2023/08/25 03:48:14;;;;;;;146.35;67.15;;;;;;;20.52;100.00;100836.47;5028007;28;20480;-60
2023/08/25 03:50:40;;;;;;;154.38;66.93;;;;;;;20.39;100.00;100844.59;5024286;28;20033;-62
2023/08/25 03:53:05;;;;;;;149.35;64.82;;;;;;;20.33;100.00;100838.75;5027728;28;20456;-61
2023/08/25 03:55:30;;;;;;;146.60;66.93;;;;;;;20.31;100.00;100842.47;5026780;28;20045;-61
2023/08/25 03:57:56;;;;;;;150.63;63.20;;;;;;;20.32;100.00;100842.38;5026739;28;20052;-61
2023/08/25 04:00:21;;;;;;;148.00;63.90;;;;;;;20.35;100.00;100838.63;5028408;28;20030;-61
2023/08/25 04:02:46;;;;;;;149.25;65.20;;;;;;;20.33;100.00;100835.19;5025519;28;20029;-61
2023/08/25 04:05:12;;;;;;;149.85;66.07;;;;;;;20.31;100.00;100837.13;5025812;28;20553;-61
2023/08/25 04:07:37;;;;;;;133.05;59.75;;;;;;;20.35;100.00;100827.94;5027526;28;20553;-59
2023/08/25 04:10:03;;;;;;;164.00;67.38;;;;;;;20.35;100.00;100827.06;5026917;28;20105;-62
2023/08/25 04:12:28;;;;;;;152.52;65.03;;;;;;;20.31;100.00;100824.63;5025864;28;20037;-61
2023/08/25 04:14:54;;;;;;;148.75;61.78;;;;;;;20.31;100.00;100824.63;5026583;28;20080;-59
2023/08/25 04:17:19;;;;;;;148.38;62.97;;;;;;;20.30;100.00;100825.59;5027129;28;20061;-61
2023/08/25 04:19:44;;;;;;;146.90;64.60;;;;;;;20.31;100.00;100821.06;5025700;28;20021;-61
2023/08/25 04:22:10;;;;;;;157.85;65.07;;;;;;;20.32;100.00;100820.13;5027577;28;20692;-60
2023/08/25 04:24:35;;;;;;;139.48;61.55;;;;;;;20.36;100.00;100816.25;5026190;28;20084;-61
2023/08/25 04:27:00;;;;;;;159.80;65.72;;;;;;;20.35;100.00;100821.72;5029746;28;20017;-63
2023/08/25 04:29:26;;;;;;;144.38;62.70;;;;;;;20.32;100.00;100822.81;5030889;28;20431;-61
2023/08/25 04:31:51;;;;;;;142.07;61.25;;;;;;;20.32;100.00;100817.44;5030987;28;20040;-61
2023/08/25 04:34:17;;;;;;;154.73;63.75;;;;;;;20.30;100.00;100814.91;5029524;28;20036;-54
2023/08/25 04:36:45;;;;;;;148.13;63.38;;;;;;;20.31;100.00;100816.59;5030917;28;20033;-61
2023/08/25 04:39:11;;;;;;;139.93;61.97;;;;;;;20.32;100.00;100820.97;5030456;28;20420;-61
2023/08/25 04:41:36;;;;;;;140.85;59.90;;;;;;;20.35;100.00;100833.28;5028448;28;20053;-63
2023/08/25 04:44:02;;;;;;;147.63;61.38;;;;;;;20.35;100.00;100832.41;5031376;28;20040;-62
2023/08/25 04:46:30;;;;;;;143.80;59.22;;;;;;;20.36;100.00;100834.09;5044441;28;20650;-62
2023/08/25 04:48:55;;;;;;;132.68;59.88;;;;;;;20.38;100.00;100829.50;5030118;28;20022;-61
2023/08/25 04:51:21;;;;;;;118.07;55.03;;;;;;;20.43;100.00;100825.50;5030602;28;20476;-61
2023/08/25 04:53:46;;;;;;;122.32;55.58;;;;;;;20.45;100.00;100818.22;5029318;28;20116;-61
2023/08/25 04:56:11;;;;;;;122.82;56.22;;;;;;;20.42;100.00;100821.13;5030853;28;20030;-61
2023/08/25 04:58:37;;;;;;;132.70;58.72;;;;;;;20.41;100.00;100826.59;5030317;28;20029;-61
2023/08/25 05:01:03;;;;;;;139.90;60.65;;;;;;;20.38;100.00;100827.66;5029268;28;20847;-63
2023/08/25 05:03:29;;;;;;;122.50;57.35;;;;;;;20.42;100.00;100823.81;5029179;28;20758;-61
2023/08/25 05:05:54;;;;;;;134.88;57.72;;;;;;;20.43;100.00;100828.19;5029821;28;20036;-59
2023/08/25 05:08:20;;;;;;;126.45;57.42;;;;;;;20.45;100.00;100823.56;5029275;28;20532;-64
2023/08/25 05:10:45;;;;;;;121.40;55.47;;;;;;;20.48;100.00;100817.13;5027293;28;20021;-62
2023/08/25 05:13:11;;;;;;;123.78;55.47;;;;;;;20.50;100.00;100812.50;5029369;28;20049;-63
2023/08/25 05:15:36;;;;;;;133.57;59.50;;;;;;;20.51;100.00;100818.72;5028646;28;20036;-62
2023/08/25 05:18:01;;;;;;;123.55;56.22;;;;;;;20.49;100.00;100817.97;5030054;28;20022;-62
2023/08/25 05:20:27;;;;;;;122.63;55.20;;;;;;;20.54;100.00;100815.78;5027279;28;20025;-61
2023/08/25 05:22:52;;;;;;;119.63;55.83;;;;;;;20.59;100.00;100824.34;5026187;28;20018;-62
2023/08/25 05:25:20;;;;;;;121.97;56.35;;;;;;;20.58;100.00;100822.63;5028792;28;20029;-61
2023/08/25 05:27:46;;;;;;;116.47;55.33;;;;;;;20.60;100.00;100830.53;5026381;28;20074;-62
2023/08/25 05:30:12;;;;;;;116.57;55.63;;;;;;;20.65;100.00;100829.19;5029293;28;20030;-61
2023/08/25 05:32:37;;;;;;;116.45;52.78;;;;;;;20.71;100.00;100823.38;5027051;28;20022;-61
2023/08/25 05:35:03;;;;;;;116.47;51.78;;;;;;;20.73;100.00;100817.03;5027298;28;20040;-61
2023/08/25 05:37:29;;;;;;;112.63;51.78;;;;;;;20.77;100.00;100822.03;5029375;28;20125;-63
2023/08/25 05:39:54;;;;;;;100.35;50.40;;;;;;;20.83;100.00;100821.56;5026435;28;20524;-60
2023/08/25 05:42:20;;;;;;;100.70;49.90;;;;;;;20.89;100.00;100817.53;5029480;28;20037;-62
2023/08/25 05:44:45;;;;;;;119.28;56.20;;;;;;;20.91;100.00;100810.28;5027023;28;20491;-62
2023/08/25 05:47:10;;;;;;;109.97;53.22;;;;;;;20.89;100.00;100812.19;5027818;28;20120;-61
2023/08/25 05:49:36;;;;;;;102.80;51.83;;;;;;;20.89;100.00;100814.03;5028598;28;20040;-63
2023/08/25 05:52:01;;;;;;;97.30;50.65;;;;;;;20.94;100.00;100812.72;5029090;28;20036;-62
2023/08/25 05:54:27;;;;;;;103.32;51.70;;;;;;;20.90;100.00;100813.09;5032902;28;20033;-60
2023/08/25 05:56:53;;;;;;;103.43;51.58;;;;;;;20.92;100.00;100803.94;5025553;28;20038;-59
2023/08/25 05:59:19;;;;;;;101.82;51.20;;;;;;;20.95;100.00;100813.59;5024394;28;20018;-60
2023/08/25 06:01:44;;;;;;;85.97;46.63;;;;;;;21.13;100.00;100805.06;5028866;28;20033;-62
2023/08/25 06:04:10;;;;;;;99.55;52.20;;;;;;;21.18;100.00;100802.84;5026727;28;20080;-58
2023/08/25 06:06:35;;;;;;;100.38;52.95;;;;;;;21.19;100.00;100801.91;5027251;28;20026;-61
2023/08/25 06:09:00;;;;;;;96.63;50.72;;;;;;;21.29;100.00;100804.69;5027274;28;20079;-60
2023/08/25 06:11:26;;;;;;;86.25;47.15;;;;;;;21.43;100.00;100807.09;5026504;28;20032;-62
2023/08/25 06:13:51;;;;;;;91.53;49.08;;;;;;;21.44;100.00;100806.13;5028363;28;20099;-61
2023/08/25 06:16:17;;;;;;;93.38;50.95;;;;;;;21.40;100.00;100796.63;5026678;28;20069;-61
2023/08/25 06:18:42;;;;;;;89.50;46.92;;;;;;;21.56;100.00;100800.75;5027059;28;20021;-61
2023/08/25 06:21:08;;;;;;;82.35;46.47;;;;;;;21.62;100.00;100800.25;5028569;28;20025;-62
2023/08/25 06:23:34;;;;;;;80.32;45.28;;;;;;;21.65;100.00;100802.69;5026275;28;20080;-64
2023/08/25 06:25:59;;;;;;;74.07;43.00;;;;;;;21.81;100.00;100809.47;5027781;28;20025;-60
2023/08/25 06:28:25;;;;;;;70.40;42.92;;;;;;;21.88;100.00;100802.63;5027881;28;20108;-61
2023/08/25 06:30:50;;;;;;;61.47;39.17;;;;;;;22.00;100.00;100802.59;5028154;28;20384;-64
2023/08/25 06:33:16;;;;;;;64.03;39.13;;;;;;;22.08;100.00;100802.81;5027289;28;20484;-62
2023/08/25 06:35:41;;;;;;;55.33;34.75;;;;;;;22.22;100.00;100801.66;5027484;28;20546;-61
2023/08/25 06:38:07;;;;;;;41.15;27.90;;;;;;;22.27;100.00;100802.09;5027790;28;20353;-60
2023/08/25 06:40:36;;;;;;;42.13;28.00;;;;;;;22.26;100.00;100799.53;5028183;28;20029;-61
2023/08/25 06:43:02;;;;;;;40.03;25.60;;;;;;;22.32;100.00;100801.72;5028023;28;20029;-60
2023/08/25 06:45:28;;;;;;;36.53;23.08;;;;;;;22.38;100.00;100803.88;5027770;28;20025;-61
2023/08/25 06:47:54;;;;;;;39.17;23.10;;;;;;;22.37;100.00;100814.75;5028004;28;20029;-61
2023/08/25 06:50:21;;;;;;;34.28;22.25;;;;;;;22.40;100.00;100823.41;5027997;28;20033;-59
2023/08/25 06:52:46;;;;;;;34.88;23.20;;;;;;;22.50;100.00;100810.03;5027539;28;20025;-60
2023/08/25 06:55:12;;;;;;;35.38;23.67;;;;;;;22.55;100.00;100815.00;5027541;28;20029;-61
2023/08/25 06:57:37;;;;;;;33.05;21.77;;;;;;;22.68;100.00;100820.19;5025936;28;20108;-60
2023/08/25 07:00:05;;;;;;;37.00;21.98;;;;;;;22.82;100.00;100813.66;5025009;28;20025;-62
2023/08/25 07:02:30;;;;;;;32.20;21.85;;;;;;;22.76;100.00;100811.47;5016902;28;20025;-61
2023/08/25 07:04:55;;;;;;;41.08;24.58;;;;;;;22.57;100.00;100799.59;5026750;28;20033;-60
2023/08/25 07:07:25;;;;;;;42.88;26.08;;;;;;;22.37;100.00;100796.81;5027430;28;20030;-60
2023/08/25 07:09:51;;;;;;;34.58;23.02;;;;;;;22.43;100.00;100800.81;5027555;28;20385;-59
2023/08/25 07:12:16;;;;;;;35.97;22.83;;;;;;;22.51;100.00;100800.16;5027226;28;20025;-61
2023/08/25 07:14:43;;;;;;;33.17;21.95;;;;;;;22.59;100.00;100792.31;5026848;28;20026;-60
2023/08/25 07:17:08;;;;;;;38.92;23.38;;;;;;;22.56;100.00;100781.81;5027801;28;20049;-61
2023/08/25 07:19:34;;;;;;;31.55;21.75;;;;;;;22.68;100.00;100786.16;5026023;28;20018;-57
2023/08/25 07:21:59;;;;;;;34.42;22.25;;;;;;;22.78;100.00;100786.19;5026921;28;20044;-62
2023/08/25 07:24:24;;;;;;;42.20;23.05;;;;;;;22.66;100.00;100771.16;5026704;28;20383;-62
2023/08/25 07:26:50;;;;;;;37.60;22.20;;;;;;;22.57;100.00;100770.97;5027460;28;20041;-61
2023/08/25 07:29:16;;;;;;;35.00;21.48;;;;;;;22.41;100.00;100778.59;5026843;28;20073;-61
2023/08/25 07:31:41;;;;;;;37.83;22.38;;;;;;;22.39;100.00;100783.25;5026030;28;20037;-61
2023/08/25 07:34:07;;;;;;;43.17;24.02;;;;;;;22.46;100.00;100779.06;5025001;28;20025;-61
2023/08/25 07:36:32;;;;;;;36.70;23.42;;;;;;;22.43;100.00;100780.16;5027202;28;20025;-60
2023/08/25 07:38:57;;;;;;;32.10;23.25;;;;;;;22.43;100.00;100777.47;5026945;28;20510;-62
2023/08/25 07:41:23;;;;;;;38.60;23.63;;;;;;;22.41;100.00;100774.09;5027338;28;20030;-61
2023/08/25 07:43:48;;;;;;;37.03;24.77;;;;;;;22.42;100.00;100778.47;5025732;28;20026;-62
2023/08/25 07:46:14;;;;;;;40.28;25.48;;;;;;;22.27;100.00;100772.56;5027183;28;20029;-61
2023/08/25 07:48:40;;;;;;;38.22;26.25;;;;;;;22.54;100.00;100786.44;5025865;28;20014;-65
2023/08/25 07:51:05;;;;;;;40.97;28.08;;;;;;;22.47;100.00;100795.03;5024070;28;20136;-59
2023/08/25 07:53:31;;;;;;;35.22;23.55;;;;;;;22.66;100.00;100796.16;5026659;28;20503;-61
2023/08/25 07:55:58;;;;;;;34.47;23.20;;;;;;;22.64;100.00;100799.97;5024975;28;20048;-62
2023/08/25 07:58:24;;;;;;;40.50;25.65;;;;;;;22.81;100.00;100803.88;5025766;28;20084;-61
2023/08/25 08:00:49;;;;;;;40.42;25.08;;;;;;;22.94;100.00;100798.28;5027739;28;20483;-61
2023/08/25 08:03:15;;;;;;;41.45;26.30;;;;;;;23.05;100.00;100802.69;5029664;28;20449;-63
2023/08/25 08:05:41;;;;;;;41.72;25.33;;;;;;;23.16;100.00;100797.25;5025836;28;20025;-62
2023/08/25 08:08:06;;;;;;;41.30;24.63;;;;;;;23.08;100.00;100792.53;5028498;28;20025;-62
2023/08/25 08:10:32;;;;;;;37.28;23.52;;;;;;;23.35;100.00;100787.53;5030693;28;20060;-61
2023/08/25 08:12:57;;;;;;;34.53;23.15;;;;;;;23.47;100.00;100791.84;5028488;28;20050;-67
2023/08/25 08:15:23;;;;;;;34.05;23.67;;;;;;;23.56;100.00;100792.84;5029821;28;20495;-62
2023/08/25 08:17:49;;;;;;;40.30;25.27;;;;;;;23.51;100.00;100796.94;5029358;28;20025;-60
2023/08/25 08:20:14;;;;;;;39.17;23.35;;;;;;;23.82;100.00;100795.00;5027249;28;20040;-63
2023/08/25 08:22:43;;;;;;;38.60;22.73;;;;;;;23.98;100.00;100791.75;5029054;28;20361;-61
2023/08/25 08:25:10;;;;;;;33.65;23.17;;;;;;;23.79;100.00;100794.44;5027719;28;20025;-62
2023/08/25 08:27:36;;;;;;;32.13;21.40;;;;;;;24.09;100.00;100795.28;5029649;28;20010;-61
2023/08/25 08:30:02;;;;;;;39.10;23.75;;;;;;;24.10;100.00;100791.59;5028541;28;20048;-62
2023/08/25 08:32:27;;;;;;;35.13;21.13;;;;;;;23.98;100.00;100791.75;5027467;28;20029;-63
2023/08/25 08:34:52;;;;;;;34.85;20.45;;;;;;;24.07;100.00;100791.88;5028047;28;20044;-63
2023/08/25 08:37:18;;;;;;;31.85;21.25;;;;;;;24.13;100.00;100802.13;5027153;28;20029;-61
2023/08/25 08:39:44;;;;;;;35.35;21.17;;;;;;;24.56;100.00;100797.22;5029209;28;20037;-62
2023/08/25 08:42:12;;;;;;;33.00;21.75;;;;;;;24.50;100.00;100807.75;5028405;28;20067;-61
2023/08/25 08:44:39;;;;;;;32.67;21.15;;;;;;;24.36;100.00;100807.19;5027601;28;20468;-62
2023/08/25 08:47:05;;;;;;;31.45;20.92;;;;;;;24.27;100.00;100808.06;5028798;28;20379;-62
2023/08/25 08:49:33;;;;;;;30.48;20.88;;;;;;;24.12;100.00;100805.78;5026915;28;20021;-62
2023/08/25 08:51:58;;;;;;;32.70;20.67;;;;;;;24.13;100.00;100804.81;5027495;28;20045;-62
2023/08/25 08:54:28;;;;;;;33.60;21.15;;;;;;;24.18;100.00;100804.38;5026916;28;20107;-59
2023/08/25 08:56:54;;;;;;;33.90;20.80;;;;;;;23.98;100.00;100807.03;5011482;28;20446;-63
2023/08/25 08:59:20;;;;;;;33.95;20.63;;;;;;;24.05;100.00;100804.66;5026826;28;20021;-62
2023/08/25 09:01:45;;;;;;;30.77;20.23;;;;;;;24.23;100.00;100808.34;5028859;28;20032;-62
2023/08/25 09:04:11;;;;;;;26.80;19.67;;;;;;;24.34;100.00;100814.56;5027749;28;20094;-62
2023/08/25 09:06:37;;;;;;;32.50;21.15;;;;;;;24.20;100.00;100824.78;5024206;28;20017;-63
2023/08/25 09:09:05;;;;;;;38.47;21.27;;;;;;;24.15;100.00;100821.69;5029486;28;20411;-62
2023/08/25 09:11:32;;;;;;;34.58;20.55;;;;;;;24.35;100.00;100827.06;5026291;28;20097;-61
2023/08/25 09:13:58;;;;;;;33.63;20.95;;;;;;;24.29;100.00;100830.31;5027041;28;20124;-62
2023/08/25 09:16:24;;;;;;;29.98;19.33;;;;;;;24.46;100.00;100824.19;5028365;28;20476;-61
2023/08/25 09:18:50;;;;;;;35.72;22.85;;;;;;;24.59;100.00;100834.66;5027920;28;20025;-62
2023/08/25 09:21:18;;;;;;;33.33;21.90;;;;;;;24.73;100.00;100824.41;5028061;28;20444;-61
2023/08/25 09:24:09;;;;;;;31.48;21.33;;;;;;;25.09;100.00;100831.84;5026784;28;20036;-60
2023/08/25 09:26:38;;;;;;;27.38;19.17;;;;;;;25.43;100.00;100825.03;5026595;28;20446;-61
2023/08/25 09:29:03;;;;;;;38.58;21.08;;;;;;;25.64;100.00;100832.84;5027005;28;20037;-62
2023/08/25 09:31:30;;;;;;;34.50;20.27;;;;;;;26.06;100.00;100841.38;5028563;28;20321;-62
2023/08/25 09:34:06;;;;;;;32.17;19.38;;;;;;;25.56;100.00;100836.31;5025160;28;20108;-58
2023/08/25 09:36:32;;;;;;;30.85;19.13;;;;;;;25.67;100.00;100842.53;5025619;28;20033;-61
2023/08/25 09:38:58;;;;;;;29.33;20.45;;;;;;;25.39;100.00;100829.00;5027802;28;20433;-61
2023/08/25 09:41:28;;;;;;;28.02;18.63;;;;;;;25.65;100.00;100831.03;5026665;28;20052;-63
2023/08/25 09:44:01;;;;;;;30.83;17.10;;;;;;;25.96;100.00;100836.06;5027028;28;20057;-62
2023/08/25 09:46:33;;;;;;;27.63;17.95;;;;;;;25.70;100.00;100826.00;5026672;28;20707;-61
2023/08/25 09:49:06;;;;;;;29.20;18.42;;;;;;;25.69;100.00;100827.88;5027709;28;20345;-61
2023/08/25 09:51:46;;;;;;;29.13;18.00;;;;;;;25.68;100.00;100828.88;5026320;28;20083;-64
2023/08/25 09:54:14;;;;;;;27.35;17.90;;;;;;;25.94;100.00;100830.81;5028171;28;20033;-61
2023/08/25 09:56:41;;;;;;;28.02;17.48;;;;;;;25.85;100.00;100823.63;5025861;28;20029;-60
2023/08/25 09:59:07;;;;;;;32.38;16.90;;;;;;;25.90;100.00;100820.47;5026850;28;20021;-62
2023/08/25 10:01:34;;;;;;;29.88;17.98;;;;;;;25.76;100.00;100816.47;5025613;28;20029;-62
2023/08/25 10:03:59;;;;;;;34.15;17.88;;;;;;;25.85;100.00;100818.22;5027191;28;20025;-62
2023/08/25 10:06:26;;;;;;;25.60;17.48;;;;;;;25.59;100.00;100813.56;5024731;28;20464;-61
2023/08/25 10:08:52;;;;;;;33.10;18.35;;;;;;;25.69;100.00;100808.97;5026347;28;20018;-60
2023/08/25 10:11:19;;;;;;;29.20;18.58;;;;;;;25.33;100.00;100808.88;5024945;28;20033;-63
2023/08/25 10:13:49;;;;;;;32.83;18.52;;;;;;;25.31;100.00;100800.13;5026293;28;20053;-62
2023/08/25 10:16:15;;;;;;;21.75;16.45;;;;;;;25.23;100.00;100807.06;5025547;28;20029;-62
2023/08/25 10:18:44;;;;;;;29.15;18.23;;;;;;;25.39;100.00;100802.91;5026562;28;20052;-62
2023/08/25 10:21:09;;;;;;;26.77;17.42;;;;;;;25.30;100.00;100787.59;5025901;28;20029;-62
2023/08/25 10:23:36;;;;;;;26.80;17.63;;;;;;;25.56;100.00;100786.91;5022600;28;20052;-62
2023/08/25 10:26:02;;;;;;;25.30;15.77;;;;;;;25.70;100.00;100789.09;5026849;28;20511;-62
2023/08/25 10:28:27;;;;;;;29.35;18.63;;;;;;;25.82;100.00;100784.31;5027188;28;20013;-61
2023/08/25 10:30:53;;;;;;;26.20;17.88;;;;;;;25.90;100.00;100790.78;5023350;28;20025;-61
2023/08/25 10:33:18;;;;;;;23.63;13.32;;;;;;;26.16;100.00;100792.69;5025273;28;20067;-62
2023/08/25 10:35:44;;;;;;;25.13;14.55;;;;;;;26.43;99.22;100790.91;5023762;28;20098;-62
2023/08/25 10:38:18;;;;;;;27.17;16.48;;;;;;;26.05;100.00;100788.38;5025025;28;20041;-61
2023/08/25 10:40:51;;;;;;;25.08;17.38;;;;;;;26.21;99.84;100788.53;5025565;28;20033;-62
2023/08/25 10:43:33;;;;;;;26.13;16.13;;;;;;;25.88;100.00;100790.94;5025085;28;20642;-62
2023/08/25 10:46:05;;;;;;;22.95;15.38;;;;;;;26.21;99.28;100791.22;5020043;28;20040;-63
2023/08/25 10:48:31;;;;;;;23.55;14.15;;;;;;;26.22;99.89;100798.31;5021852;28;20045;-62
2023/08/25 10:51:10;;;;;;;21.33;14.85;;;;;;;26.42;98.08;100789.19;5023535;28;20540;-63
2023/08/25 10:53:39;;;;;;;20.50;14.30;;;;;;;26.74;96.86;100790.41;5025522;28;20032;-59
2023/08/25 10:56:22;;;;;;;25.40;14.25;;;;;;;27.03;93.09;100789.22;5026850;28;20030;-63